createdAt,value
2023-05-24T00:04:01.006Z,25.30
2023-05-24T00:09:04.148Z,25.30
2023-05-24T00:14:07.124Z,25.30
2023-05-24T00:19:11.954Z,25.40
2023-05-24T00:24:14.894Z,25.30
2023-05-24T00:29:17.817Z,25.30
2023-05-24T00:34:22.708Z,25.40
2023-05-24T00:39:25.625Z,25.30
2023-05-24T00:44:28.499Z,25.30
2023-05-24T00:49:33.039Z,25.20
2023-05-24T00:54:36.149Z,25.30
2023-05-24T00:59:39.051Z,25.20
2023-05-24T01:04:43.630Z,25.20
2023-05-24T01:10:04.716Z,25.20
2023-05-24T01:15:10.738Z,25.20
2023-05-24T01:20:17.114Z,25.20
2023-05-24T01:25:28.691Z,25.30
2023-05-24T01:30:33.946Z,25.20
2023-05-24T01:35:40.392Z,25.20
2023-05-24T01:40:43.728Z,25.20
2023-05-24T01:45:56.027Z,25.20
2023-05-24T01:51:00.984Z,25.20
2023-05-24T01:56:06.659Z,25.10
2023-05-24T02:01:11.395Z,25.20
2023-05-24T02:06:14.499Z,25.10
2023-05-24T02:11:17.366Z,25.20
2023-05-24T02:16:23.891Z,25.10
2023-05-24T02:21:27.266Z,25.10
2023-05-24T02:26:30.177Z,25.10
2023-05-24T02:31:34.454Z,25.10
2023-05-24T02:36:37.464Z,25.20
2023-05-24T02:41:41.157Z,25.10
2023-05-24T02:46:45.588Z,25.20
2023-05-24T02:51:48.647Z,25.10
2023-05-24T02:56:51.792Z,25.10
2023-05-24T03:01:56.005Z,25.10
2023-05-24T03:06:58.888Z,25.10
2023-05-24T03:12:03.503Z,25.10
2023-05-24T03:17:07.686Z,25.20
2023-05-24T03:22:10.702Z,25.10
2023-05-24T03:27:13.725Z,25.10
2023-05-24T03:32:17.953Z,25.10
2023-05-24T03:37:20.827Z,25.10
2023-05-24T03:42:23.702Z,25.10
2023-05-24T03:47:27.959Z,25.10
2023-05-24T03:52:30.830Z,24.90
2023-05-24T03:57:33.700Z,25.00
2023-05-24T04:02:38.111Z,25.00
2023-05-24T04:07:41.986Z,25.10
2023-05-24T04:12:46.128Z,25.00
2023-05-24T04:17:54.900Z,25.00
2023-05-24T04:22:58.056Z,25.00
2023-05-24T04:28:02.419Z,25.00
2023-05-24T04:33:06.998Z,25.00
2023-05-24T04:38:12.501Z,25.00
2023-05-24T04:43:15.405Z,25.10
2023-05-24T04:48:21.170Z,24.90
2023-05-24T04:53:24.252Z,25.00
2023-05-24T04:58:27.121Z,25.00
2023-05-24T05:03:31.438Z,25.00
2023-05-24T05:08:34.580Z,25.00
2023-05-24T05:13:37.454Z,25.00
2023-05-24T05:18:41.629Z,25.10
2023-05-24T05:23:44.493Z,25.00
2023-05-24T05:28:47.384Z,25.10
2023-05-24T05:33:51.650Z,25.00
2023-05-24T05:38:54.691Z,25.00
2023-05-24T05:43:57.571Z,25.00
2023-05-24T05:49:01.897Z,25.10
2023-05-24T05:54:04.902Z,25.10
2023-05-24T05:59:07.771Z,25.10
2023-05-24T06:04:12.125Z,25.10
2023-05-24T06:09:15.118Z,25.10
2023-05-24T06:14:19.946Z,25.10
2023-05-24T06:19:24.971Z,24.80
2023-05-24T06:24:28.548Z,24.00
2023-05-24T06:29:31.573Z,23.90
2023-05-24T06:34:35.930Z,23.50
2023-05-24T06:39:38.795Z,23.60
2023-05-24T06:44:41.689Z,23.10
2023-05-24T06:49:46.027Z,23.10
2023-05-24T06:54:48.899Z,23.20
2023-05-24T06:59:52.048Z,23.90
2023-05-24T07:04:57.175Z,24.50
2023-05-24T07:10:00.237Z,25.00
2023-05-24T07:15:03.159Z,25.20
2023-05-24T07:20:10.894Z,25.40
2023-05-24T07:25:14.587Z,25.50
2023-05-24T07:30:31.202Z,25.60
2023-05-24T07:35:36.378Z,25.70
2023-05-24T07:40:39.405Z,25.80
2023-05-24T07:45:42.458Z,26.00
2023-05-24T07:50:48.619Z,26.00
2023-05-24T07:55:51.878Z,26.00
2023-05-24T08:00:55.088Z,26.10
2023-05-24T08:05:59.338Z,25.60
2023-05-24T08:11:02.246Z,25.00
2023-05-24T08:16:05.190Z,24.90
2023-05-24T08:21:09.944Z,24.90
2023-05-24T08:26:13.156Z,24.80
2023-05-24T08:31:16.387Z,24.80
2023-05-24T08:36:21.583Z,24.90
2023-05-24T08:41:24.514Z,24.90
2023-05-24T08:46:27.590Z,24.80
2023-05-24T08:51:32.321Z,25.00
2023-05-24T08:56:35.509Z,25.00
2023-05-24T09:01:39.759Z,25.30
2023-05-24T09:06:44.263Z,25.70
2023-05-24T09:11:48.747Z,25.90
2023-05-24T09:16:51.916Z,26.10
2023-05-24T09:21:57.465Z,26.20
2023-05-24T09:27:06.981Z,26.30
2023-05-24T09:32:10.037Z,26.20
2023-05-24T09:37:16.829Z,26.20
2023-05-24T09:42:24.462Z,26.30
2023-05-24T09:47:29.927Z,26.20
2023-05-24T09:52:37.458Z,26.20
2023-05-24T09:57:40.448Z,26.40
2023-05-24T10:08:08.980Z,26.40
2023-05-24T10:13:12.505Z,26.50
2023-05-24T10:18:15.531Z,26.40
2023-05-24T10:23:21.942Z,26.30
2023-05-24T10:28:25.380Z,26.20
2023-05-24T10:33:28.529Z,26.00
2023-05-24T10:38:32.771Z,24.80
2023-05-24T10:41:46.159Z,26.40
2023-05-24T10:43:36.155Z,24.90
2023-05-24T10:48:40.671Z,24.00
2023-05-24T10:53:45.152Z,23.60
2023-05-24T10:59:00.449Z,24.20
2023-05-24T11:04:08.660Z,24.80
2023-05-24T11:09:12.925Z,25.10
2023-05-24T11:14:16.134Z,25.20
2023-05-24T11:19:20.753Z,25.40
2023-05-24T11:24:25.356Z,25.50
2023-05-24T11:29:28.834Z,25.60
2023-05-24T11:34:32.573Z,25.60
2023-05-24T11:39:38.098Z,25.60
2023-05-24T11:44:41.204Z,25.60
2023-05-24T11:49:44.094Z,25.60
2023-05-24T11:54:48.490Z,25.40
2023-05-24T11:59:51.608Z,25.60
2023-05-24T12:04:55.348Z,25.60
2023-05-24T12:09:59.667Z,26.00
2023-05-24T12:15:02.607Z,26.20
2023-05-24T12:20:06.922Z,26.40
2023-05-24T12:25:15.540Z,26.30
2023-05-24T12:30:21.448Z,26.40
2023-05-24T12:35:24.863Z,26.40
2023-05-24T12:40:29.390Z,26.40
2023-05-24T12:45:32.748Z,26.60
2023-05-24T12:50:35.987Z,26.70
2023-05-24T12:55:41.302Z,26.70
2023-05-24T13:00:50.526Z,26.80
2023-05-24T13:05:53.683Z,26.80
2023-05-24T13:10:58.082Z,26.70
2023-05-24T13:16:00.985Z,26.50
2023-05-24T13:21:05.459Z,26.60
2023-05-24T13:26:09.933Z,26.50
2023-05-24T13:31:12.818Z,26.30
2023-05-24T13:36:17.122Z,26.40
2023-05-24T13:41:22.149Z,26.10
2023-05-24T13:46:25.104Z,26.00
2023-05-24T13:51:28.108Z,26.10
2023-05-24T13:56:34.206Z,26.20
2023-05-24T14:01:38.555Z,26.60
2023-05-24T14:06:41.555Z,26.80
2023-05-24T14:11:45.775Z,26.80
2023-05-24T14:16:51.805Z,26.90
2023-05-24T14:21:54.934Z,26.90
2023-05-24T14:26:59.331Z,27.00
2023-05-24T14:32:02.338Z,26.90
2023-05-24T14:37:06.469Z,27.00
2023-05-24T14:42:11.174Z,26.90
2023-05-24T14:47:14.022Z,26.90
2023-05-24T14:52:17.021Z,26.90
2023-05-24T14:57:21.910Z,27.00
2023-05-24T15:02:25.237Z,27.00
2023-05-24T15:07:28.181Z,27.20
2023-05-24T15:12:32.358Z,27.90
2023-05-24T15:17:35.339Z,27.60
2023-05-24T15:22:38.483Z,27.30
2023-05-24T15:27:42.737Z,27.10
2023-05-24T15:32:46.452Z,27.30
2023-05-24T15:37:49.428Z,26.90
2023-05-24T15:42:53.809Z,26.50
2023-05-24T15:47:56.794Z,26.60
2023-05-24T15:52:59.907Z,26.70
2023-05-24T15:58:04.211Z,26.80
2023-05-24T16:03:07.495Z,26.60
2023-05-24T16:08:10.470Z,26.70
2023-05-24T16:13:14.661Z,28.60
2023-05-24T16:18:19.158Z,29.00
2023-05-24T16:23:23.716Z,27.50
2023-05-24T16:28:28.068Z,26.80
2023-05-24T16:33:30.994Z,26.70
2023-05-24T16:38:34.743Z,26.40
2023-05-24T16:43:39.319Z,26.40
2023-05-24T16:48:42.288Z,26.80
2023-05-24T16:53:45.674Z,26.60
2023-05-24T16:58:50.361Z,26.40
2023-05-24T17:03:53.527Z,26.20
2023-05-24T17:08:56.555Z,26.30
2023-05-24T17:14:00.762Z,26.30
2023-05-24T17:19:03.770Z,26.30
2023-05-24T17:24:07.113Z,26.20
2023-05-24T17:29:11.571Z,26.10
2023-05-24T17:34:16.518Z,26.00
2023-05-24T17:39:20.061Z,25.90
2023-05-24T17:44:24.489Z,25.80
2023-05-24T17:49:27.505Z,25.80
2023-05-24T17:54:30.680Z,25.80
2023-05-24T17:59:35.121Z,25.80
2023-05-24T18:04:38.019Z,25.70
2023-05-24T18:09:40.888Z,25.70
2023-05-24T18:14:45.242Z,25.60
2023-05-24T18:19:48.485Z,25.50
2023-05-24T18:24:51.371Z,25.60
2023-05-24T18:29:59.312Z,25.50
2023-05-24T18:35:02.206Z,25.40
2023-05-24T18:40:05.760Z,25.50
2023-05-24T18:45:10.780Z,25.40
2023-05-24T18:50:13.687Z,25.30
2023-05-24T18:55:16.922Z,25.30
2023-05-24T19:00:22.824Z,25.30
2023-05-24T19:05:25.895Z,25.20
2023-05-24T19:10:28.805Z,25.10
2023-05-24T19:15:33.236Z,25.20
2023-05-24T19:20:36.265Z,25.20
2023-05-24T19:25:42.158Z,25.30
2023-05-24T19:30:46.643Z,25.20
2023-05-24T19:35:51.149Z,25.20
2023-05-24T19:40:54.058Z,25.10
2023-05-24T19:45:58.777Z,25.10
2023-05-24T19:51:01.699Z,25.10
2023-05-24T19:56:04.598Z,25.10
2023-05-24T20:01:08.913Z,25.10
2023-05-24T20:06:11.931Z,25.00
2023-05-24T20:11:14.857Z,24.90
2023-05-24T20:16:19.136Z,24.90
2023-05-24T20:21:23.514Z,24.90
2023-05-24T20:26:26.480Z,24.80
2023-05-24T20:31:30.924Z,24.80
2023-05-24T20:36:33.863Z,24.80
2023-05-24T20:41:36.735Z,24.80
2023-05-24T20:46:41.195Z,24.70
2023-05-24T20:51:44.531Z,24.70
2023-05-24T20:56:47.460Z,24.60
2023-05-24T21:01:51.716Z,24.70
2023-05-24T21:06:55.141Z,24.60
2023-05-24T21:11:58.006Z,24.50
2023-05-24T21:17:02.283Z,24.50
2023-05-24T21:22:05.849Z,24.40
2023-05-24T21:27:08.859Z,24.40
2023-05-24T21:32:13.102Z,24.40
2023-05-24T21:37:16.181Z,24.30
2023-05-24T21:42:19.011Z,24.40
2023-05-24T21:47:23.264Z,24.30
2023-05-24T21:52:26.126Z,24.40
2023-05-24T21:57:29.014Z,24.40
2023-05-24T22:02:33.307Z,24.20
2023-05-24T22:07:37.054Z,24.20
2023-05-24T22:12:40.014Z,24.20
2023-05-24T22:17:44.234Z,24.20
2023-05-24T22:22:53.249Z,24.20
2023-05-24T22:27:56.675Z,24.20
2023-05-24T22:33:00.957Z,24.20
2023-05-24T22:38:03.848Z,24.10
2023-05-24T22:43:06.974Z,24.10
2023-05-24T22:48:11.325Z,24.10
2023-05-24T22:53:14.249Z,24.10
2023-05-24T22:58:17.153Z,24.10
2023-05-24T23:03:22.886Z,24.10
2023-05-24T23:08:25.956Z,24.00
2023-05-24T23:13:33.720Z,24.00
2023-05-24T23:18:42.783Z,23.90
2023-05-24T23:23:46.186Z,23.90
2023-05-24T23:28:49.195Z,23.90
2023-05-24T23:33:53.477Z,24.00
2023-05-24T23:38:56.391Z,24.00
2023-05-24T23:43:59.256Z,23.90
2023-05-24T23:49:03.573Z,24.00
2023-05-24T23:54:06.715Z,23.90
2023-05-24T23:59:09.699Z,23.90
